Time;durP1;ratioP1;P1;durP2;ratioP2;P2;SDS_P1;SDS_P2;PMS_P1;PMS_P2;Temp;Humidity;BMP_temperature;BMP_pressure;BME280_temperature;BME280_humidity;BME280_pressure;Samples;Min_cycle;Max_cycle;Signal;HPM_P1;HPM_P2
2021/07/03 00:01:05;;;;;;;0.50;0.50;;;;;;;;;;5069241;28;20064;-78
2021/07/03 00:03:31;;;;;;;0.47;0.47;;;;;;;;;;5066182;28;20636;-79
2021/07/03 00:05:56;;;;;;;0.45;0.45;;;;;;;;;;5058279;28;20039;-75
2021/07/03 00:08:23;;;;;;;0.40;0.40;;;;;;;;;;5061080;28;20043;-76
2021/07/03 00:10:49;;;;;;;0.45;0.45;;;;;;;;;;5063363;28;20032;-77
2021/07/03 00:13:14;;;;;;;0.40;0.40;;;;;;;;;;5042146;28;20041;-76
2021/07/03 00:15:39;;;;;;;0.50;0.50;;;;;;;;;;5063000;28;20036;-75
2021/07/03 00:18:05;;;;;;;0.57;0.57;;;;;;;;;;5081139;28;20044;-76
2021/07/03 00:20:30;;;;;;;0.50;0.50;;;;;;;;;;5087275;28;20020;-77
2021/07/03 00:22:55;;;;;;;0.50;0.50;;;;;;;;;;5070654;28;20032;-76
2021/07/03 00:25:22;;;;;;;0.50;0.50;;;;;;;;;;5071554;28;20476;-75
2021/07/03 00:27:47;;;;;;;0.50;0.50;;;;;;;;;;5062060;28;20482;-76
2021/07/03 00:30:13;;;;;;;0.50;0.50;;;;;;;;;;5064442;28;20025;-75
2021/07/03 00:32:38;;;;;;;0.50;0.50;;;;;;;;;;5054359;28;20024;-76
2021/07/03 00:35:05;;;;;;;0.60;0.60;;;;;;;;;;5069675;28;20120;-76
2021/07/03 00:37:30;;;;;;;0.40;0.40;;;;;;;;;;5063110;28;20549;-76
2021/07/03 00:39:56;;;;;;;0.50;0.50;;;;;;;;;;5065724;28;20032;-75
2021/07/03 00:42:22;;;;;;;0.50;0.50;;;;;;;;;;5060681;28;20024;-75
2021/07/03 00:44:47;;;;;;;0.50;0.50;;;;;;;;;;5073332;28;20052;-76
2021/07/03 00:47:12;;;;;;;0.50;0.50;;;;;;;;;;5056513;28;20028;-74
2021/07/03 00:49:42;;;;;;;0.50;0.50;;;;;;;;;;5093261;28;20046;-77
2021/07/03 00:52:08;;;;;;;0.50;0.50;;;;;;;;;;5081746;28;20069;-74
2021/07/03 00:54:39;;;;;;;0.47;0.47;;;;;;;;;;5080636;28;20054;-78
2021/07/03 00:57:06;;;;;;;0.52;0.52;;;;;;;;;;5082948;28;20032;-74
2021/07/03 00:59:41;;;;;;;0.40;0.40;;;;;;;;;;5069411;28;20541;-76
2021/07/03 01:02:09;;;;;;;0.50;0.50;;;;;;;;;;5046588;28;20060;-76
2021/07/03 01:04:36;;;;;;;0.50;0.50;;;;;;;;;;5065529;28;20020;-78
2021/07/03 01:07:02;;;;;;;0.50;0.50;;;;;;;;;;5064298;28;20817;-78
2021/07/03 01:09:29;;;;;;;0.50;0.50;;;;;;;;;;5057655;28;20119;-78
2021/07/03 01:11:54;;;;;;;0.50;0.50;;;;;;;;;;5049393;28;20515;-75
2021/07/03 01:14:21;;;;;;;0.50;0.50;;;;;;;;;;5071954;28;20111;-75
2021/07/03 01:16:48;;;;;;;0.50;0.50;;;;;;;;;;5048136;28;20109;-75
2021/07/03 01:19:14;;;;;;;0.60;0.60;;;;;;;;;;5061869;28;20071;-76
2021/07/03 01:21:39;;;;;;;0.50;0.50;;;;;;;;;;5065374;28;20064;-76
2021/07/03 01:24:05;;;;;;;0.50;0.50;;;;;;;;;;5066622;28;20442;-78
2021/07/03 01:26:41;;;;;;;0.40;0.40;;;;;;;;;;5050942;28;20543;-78
2021/07/03 01:29:07;;;;;;;0.40;0.40;;;;;;;;;;5045005;28;20017;-78
2021/07/03 01:31:33;;;;;;;0.50;0.50;;;;;;;;;;5054963;28;20294;-78
2021/07/03 01:33:58;;;;;;;0.50;0.50;;;;;;;;;;5046017;28;20382;-79
2021/07/03 01:36:23;;;;;;;0.50;0.50;;;;;;;;;;5046075;28;20032;-78
2021/07/03 01:38:50;;;;;;;0.60;0.60;;;;;;;;;;5042680;28;20021;-75
2021/07/03 01:41:16;;;;;;;0.50;0.50;;;;;;;;;;5040310;28;20083;-75
2021/07/03 01:43:51;;;;;;;0.57;0.57;;;;;;;;;;5054744;28;20063;-77
2021/07/03 01:46:17;;;;;;;0.50;0.50;;;;;;;;;;5063769;28;20047;-76
2021/07/03 01:48:43;;;;;;;0.50;0.50;;;;;;;;;;5052064;28;20025;-76
2021/07/03 01:51:17;;;;;;;0.50;0.50;;;;;;;;;;5062232;28;20028;-76
2021/07/03 01:53:43;;;;;;;0.50;0.50;;;;;;;;;;5055563;28;20062;-75
2021/07/03 01:56:09;;;;;;;0.50;0.50;;;;;;;;;;5055681;28;20055;-76
2021/07/03 01:58:37;;;;;;;0.50;0.50;;;;;;;;;;5057690;28;20583;-76
2021/07/03 02:01:19;;;;;;;0.60;0.60;;;;;;;;;;5042969;28;20495;-76
2021/07/03 02:03:46;;;;;;;0.50;0.50;;;;;;;;;;5039986;28;20028;-75
2021/07/03 02:06:18;;;;;;;0.60;0.60;;;;;;;;;;5062580;28;20036;-77
2021/07/03 02:08:44;;;;;;;0.60;0.60;;;;;;;;;;5053235;28;20048;-76
2021/07/03 02:11:16;;;;;;;0.57;0.57;;;;;;;;;;5047222;28;20128;-76
2021/07/03 02:13:46;;;;;;;0.50;0.50;;;;;;;;;;5041251;28;20024;-76
2021/07/03 02:16:13;;;;;;;0.55;0.55;;;;;;;;;;5061244;28;20524;-75
2021/07/03 02:18:39;;;;;;;0.50;0.50;;;;;;;;;;5058644;28;20101;-77
2021/07/03 02:21:13;;;;;;;0.50;0.50;;;;;;;;;;5061032;28;20028;-75
2021/07/03 02:23:39;;;;;;;0.50;0.50;;;;;;;;;;5057484;28;20023;-75
2021/07/03 02:26:04;;;;;;;0.50;0.50;;;;;;;;;;5063625;28;20124;-77
2021/07/03 02:28:33;;;;;;;0.60;0.60;;;;;;;;;;5062531;28;20025;-78
2021/07/03 02:31:10;;;;;;;0.60;0.60;;;;;;;;;;5061175;28;20029;-76
2021/07/03 02:33:38;;;;;;;0.55;0.55;;;;;;;;;;5058778;28;20032;-75
2021/07/03 02:36:07;;;;;;;0.50;0.50;;;;;;;;;;5057740;28;20047;-75
2021/07/03 02:38:34;;;;;;;0.50;0.50;;;;;;;;;;5052668;28;20020;-76
2021/07/03 02:41:01;;;;;;;0.50;0.50;;;;;;;;;;5038794;28;20036;-76
2021/07/03 02:43:28;;;;;;;;;;;;;;;;;;5059072;28;20689;-76
2021/07/03 02:45:57;;;;;;;0.50;0.50;;;;;;;;;;5061172;28;19952;-76
2021/07/03 02:48:23;;;;;;;0.60;0.60;;;;;;;;;;5055785;28;20122;-76
2021/07/03 02:50:49;;;;;;;0.60;0.60;;;;;;;;;;5067724;28;20024;-76
2021/07/03 02:53:14;;;;;;;0.50;0.50;;;;;;;;;;5062598;28;20040;-77
2021/07/03 02:55:40;;;;;;;0.60;0.60;;;;;;;;;;5054112;28;20037;-78
2021/07/03 02:58:06;;;;;;;0.55;0.55;;;;;;;;;;5055748;28;20052;-78
2021/07/03 03:00:32;;;;;;;0.52;0.52;;;;;;;;;;5041625;28;20021;-77
2021/07/03 03:02:58;;;;;;;0.50;0.50;;;;;;;;;;5056390;28;20028;-77
2021/07/03 03:05:23;;;;;;;0.55;0.55;;;;;;;;;;5060008;28;20021;-78
2021/07/03 03:07:49;;;;;;;0.60;0.60;;;;;;;;;;5056904;28;20028;-77
2021/07/03 03:10:17;;;;;;;0.50;0.50;;;;;;;;;;5062842;28;20020;-77
2021/07/03 03:12:46;;;;;;;0.60;0.60;;;;;;;;;;5049776;28;20500;-77
2021/07/03 03:15:13;;;;;;;0.60;0.60;;;;;;;;;;5056775;28;20032;-78
2021/07/03 03:17:40;;;;;;;0.60;0.60;;;;;;;;;;5062345;28;20449;-77
2021/07/03 03:20:07;;;;;;;0.60;0.60;;;;;;;;;;5064345;28;20528;-77
2021/07/03 03:22:34;;;;;;;0.60;0.60;;;;;;;;;;5055034;28;20064;-77
2021/07/03 03:25:00;;;;;;;0.60;0.60;;;;;;;;;;5063619;28;20488;-76
2021/07/03 03:27:25;;;;;;;0.60;0.60;;;;;;;;;;5071286;28;20814;-76
2021/07/03 03:29:51;;;;;;;0.60;0.60;;;;;;;;;;5063205;28;20102;-77
2021/07/03 03:32:16;;;;;;;0.63;0.63;;;;;;;;;;5064434;28;20032;-77
2021/07/03 03:34:42;;;;;;;0.60;0.60;;;;;;;;;;5060562;28;20147;-78
2021/07/03 03:37:07;;;;;;;0.50;0.50;;;;;;;;;;5057090;28;20052;-76
2021/07/03 03:39:38;;;;;;;0.60;0.60;;;;;;;;;;5051483;28;20017;-77
2021/07/03 03:42:05;;;;;;;0.60;0.60;;;;;;;;;;5043478;28;20045;-77
2021/07/03 03:44:31;;;;;;;0.60;0.60;;;;;;;;;;5065568;28;20672;-76
2021/07/03 03:46:57;;;;;;;0.50;0.50;;;;;;;;;;5056360;28;20051;-77
2021/07/03 03:49:27;;;;;;;0.65;0.65;;;;;;;;;;5047969;28;20060;-77
2021/07/03 03:51:53;;;;;;;0.60;0.60;;;;;;;;;;5059783;28;20048;-77
2021/07/03 03:54:19;;;;;;;0.60;0.60;;;;;;;;;;5059003;28;20034;-77
2021/07/03 03:56:44;;;;;;;0.60;0.60;;;;;;;;;;5042730;28;20115;-78
2021/07/03 03:59:10;;;;;;;0.60;0.60;;;;;;;;;;5051916;28;20032;-78
2021/07/03 04:01:36;;;;;;;0.60;0.60;;;;;;;;;;5060874;28;20040;-78
2021/07/03 04:04:02;;;;;;;0.55;0.55;;;;;;;;;;5060969;28;20040;-77
2021/07/03 04:06:28;;;;;;;0.60;0.60;;;;;;;;;;5057205;28;20039;-77
2021/07/03 04:08:53;;;;;;;0.60;0.60;;;;;;;;;;5061595;28;20033;-78
2021/07/03 04:11:19;;;;;;;0.57;0.57;;;;;;;;;;5061680;28;20024;-77
2021/07/03 04:13:44;;;;;;;0.60;0.60;;;;;;;;;;5041834;28;21578;-77
2021/07/03 04:16:09;;;;;;;0.60;0.60;;;;;;;;;;5062727;28;20035;-77
2021/07/03 04:18:35;;;;;;;0.50;0.50;;;;;;;;;;5039107;28;20020;-77
2021/07/03 04:21:00;;;;;;;0.50;0.50;;;;;;;;;;5059670;28;20424;-77
2021/07/03 04:23:26;;;;;;;0.60;0.60;;;;;;;;;;5055053;28;20107;-78
2021/07/03 04:25:51;;;;;;;0.50;0.50;;;;;;;;;;5059634;28;20139;-77
2021/07/03 04:28:16;;;;;;;0.50;0.50;;;;;;;;;;5059344;28;20037;-77
2021/07/03 04:30:42;;;;;;;0.60;0.60;;;;;;;;;;5057300;28;20032;-77
2021/07/03 04:33:07;;;;;;;0.60;0.60;;;;;;;;;;5038833;28;20029;-77
2021/07/03 04:35:33;;;;;;;0.60;0.60;;;;;;;;;;5062007;28;20028;-77
2021/07/03 04:37:58;;;;;;;0.50;0.50;;;;;;;;;;5058542;28;20025;-78
2021/07/03 04:40:24;;;;;;;0.50;0.50;;;;;;;;;;5063340;28;20031;-77
2021/07/03 04:42:49;;;;;;;0.50;0.50;;;;;;;;;;5057649;28;20020;-77
2021/07/03 04:45:19;;;;;;;0.50;0.50;;;;;;;;;;5058253;28;20111;-77
2021/07/03 04:47:44;;;;;;;0.60;0.60;;;;;;;;;;5059019;28;20838;-77
2021/07/03 04:50:10;;;;;;;0.50;0.50;;;;;;;;;;5053142;28;20037;-77
2021/07/03 04:52:36;;;;;;;0.50;0.50;;;;;;;;;;5049201;28;20036;-78
2021/07/03 04:55:04;;;;;;;0.65;0.65;;;;;;;;;;5044306;28;20052;-77
2021/07/03 04:57:29;;;;;;;0.50;0.50;;;;;;;;;;5062412;28;20028;-77
2021/07/03 04:59:54;;;;;;;0.50;0.50;;;;;;;;;;5060166;28;20028;-78
2021/07/03 05:02:20;;;;;;;0.50;0.50;;;;;;;;;;5046997;28;20436;-78
2021/07/03 05:04:46;;;;;;;0.50;0.50;;;;;;;;;;5056705;28;20101;-78
2021/07/03 05:07:12;;;;;;;0.50;0.50;;;;;;;;;;5056595;28;20504;-78
2021/07/03 05:10:06;;;;;;;0.50;0.50;;;;;;;;;;5052031;28;20040;-77
2021/07/03 05:12:32;;;;;;;0.50;0.50;;;;;;;;;;5058789;28;20024;-77
2021/07/03 05:14:57;;;;;;;0.50;0.50;;;;;;;;;;5059201;28;20032;-77
2021/07/03 05:17:23;;;;;;;0.50;0.50;;;;;;;;;;5064245;28;20101;-77
2021/07/03 05:19:48;;;;;;;0.50;0.50;;;;;;;;;;5062869;28;20025;-77
2021/07/03 05:22:14;;;;;;;0.45;0.45;;;;;;;;;;5064105;28;20027;-78
2021/07/03 05:24:39;;;;;;;0.50;0.50;;;;;;;;;;5062964;28;20020;-78
2021/07/03 05:27:04;;;;;;;0.50;0.50;;;;;;;;;;5066377;28;20108;-78
2021/07/03 05:29:30;;;;;;;0.47;0.47;;;;;;;;;;5058064;28;20123;-78
2021/07/03 05:31:55;;;;;;;0.50;0.50;;;;;;;;;;5057848;28;20127;-78
2021/07/03 05:34:20;;;;;;;0.47;0.47;;;;;;;;;;5060738;28;20032;-79
2021/07/03 05:36:48;;;;;;;0.40;0.40;;;;;;;;;;5053539;28;20017;-78
2021/07/03 05:39:15;;;;;;;0.43;0.43;;;;;;;;;;5058907;28;20037;-78
2021/07/03 05:41:44;;;;;;;0.47;0.47;;;;;;;;;;5058097;28;20075;-78
2021/07/03 05:44:10;;;;;;;0.50;0.50;;;;;;;;;;5064576;28;20040;-77
2021/07/03 05:46:35;;;;;;;0.40;0.40;;;;;;;;;;5064318;28;20708;-76
2021/07/03 05:49:01;;;;;;;0.40;0.40;;;;;;;;;;5064681;28;20080;-75
2021/07/03 05:51:27;;;;;;;0.40;0.40;;;;;;;;;;5067813;28;20040;-78
2021/07/03 05:53:54;;;;;;;0.38;0.38;;;;;;;;;;5064316;28;20455;-77
2021/07/03 05:56:19;;;;;;;0.40;0.40;;;;;;;;;;5058885;28;20082;-79
2021/07/03 05:58:45;;;;;;;0.40;0.40;;;;;;;;;;5042745;28;20270;-79
2021/07/03 06:01:10;;;;;;;0.40;0.40;;;;;;;;;;5055476;28;20111;-78
2021/07/03 06:03:36;;;;;;;0.40;0.40;;;;;;;;;;5055499;28;20044;-79
2021/07/03 06:06:01;;;;;;;0.30;0.30;;;;;;;;;;5048007;28;20039;-79
2021/07/03 06:08:27;;;;;;;0.40;0.40;;;;;;;;;;5062574;28;20028;-76
2021/07/03 06:10:52;;;;;;;0.30;0.30;;;;;;;;;;5061499;28;20506;-76
2021/07/03 06:13:17;;;;;;;0.30;0.30;;;;;;;;;;5059042;28;20028;-76
2021/07/03 06:15:43;;;;;;;0.35;0.35;;;;;;;;;;5060124;28;20338;-77
2021/07/03 06:18:08;;;;;;;0.30;0.30;;;;;;;;;;5059247;28;20505;-78
2021/07/03 06:20:34;;;;;;;0.30;0.30;;;;;;;;;;5060958;28;20282;-77
2021/07/03 06:22:59;;;;;;;0.35;0.35;;;;;;;;;;5067615;28;20103;-77
2021/07/03 06:25:24;;;;;;;0.40;0.40;;;;;;;;;;5064409;28;20028;-79
2021/07/03 06:27:50;;;;;;;0.35;0.35;;;;;;;;;;5046351;28;20028;-80
2021/07/03 06:30:15;;;;;;;0.32;0.32;;;;;;;;;;5044392;28;20044;-80
2021/07/03 06:32:41;;;;;;;0.30;0.30;;;;;;;;;;5057047;28;20036;-80
2021/07/03 06:35:07;;;;;;;0.40;0.40;;;;;;;;;;5052098;28;20105;-80
2021/07/03 06:37:32;;;;;;;0.40;0.40;;;;;;;;;;5057028;28;20572;-77
2021/07/03 06:39:57;;;;;;;0.30;0.30;;;;;;;;;;5040584;28;20060;-77
2021/07/03 06:42:24;;;;;;;0.20;0.20;;;;;;;;;;5038438;28;20028;-77
2021/07/03 06:44:49;;;;;;;0.30;0.30;;;;;;;;;;5056521;28;20469;-77
2021/07/03 06:47:15;;;;;;;0.30;0.30;;;;;;;;;;5054089;28;20556;-77
2021/07/03 06:49:41;;;;;;;0.30;0.30;;;;;;;;;;5055987;28;20028;-78
2021/07/03 06:52:07;;;;;;;0.20;0.20;;;;;;;;;;5061071;28;20012;-78
2021/07/03 06:54:33;;;;;;;0.30;0.30;;;;;;;;;;5079401;28;20092;-77
2021/07/03 06:56:58;;;;;;;0.30;0.30;;;;;;;;;;5081125;28;20028;-78
2021/07/03 06:59:24;;;;;;;0.20;0.20;;;;;;;;;;5080142;28;20024;-78
2021/07/03 07:01:50;;;;;;;0.30;0.30;;;;;;;;;;5080227;28;20028;-76
2021/07/03 07:04:15;;;;;;;0.20;0.20;;;;;;;;;;5078452;28;20545;-75
2021/07/03 07:06:40;;;;;;;0.20;0.20;;;;;;;;;;5055326;28;20033;-76
2021/07/03 07:09:21;;;;;;;0.20;0.20;;;;;;;;;;5055480;28;20048;-77
2021/07/03 07:11:47;;;;;;;0.20;0.20;;;;;;;;;;5061541;28;20111;-77
2021/07/03 07:14:12;;;;;;;0.20;0.20;;;;;;;;;;5056878;28;20704;-78
2021/07/03 07:16:38;;;;;;;0.20;0.20;;;;;;;;;;5057406;28;20040;-78
2021/07/03 07:19:04;;;;;;;0.20;0.20;;;;;;;;;;5058002;28;20151;-78
2021/07/03 07:21:29;;;;;;;0.20;0.20;;;;;;;;;;5051926;28;20116;-78
2021/07/03 07:23:54;;;;;;;0.20;0.20;;;;;;;;;;5038700;28;20024;-79
2021/07/03 07:26:20;;;;;;;0.20;0.20;;;;;;;;;;5052670;28;20706;-77
2021/07/03 07:28:49;;;;;;;0.20;0.20;;;;;;;;;;5056684;28;20052;-76
2021/07/03 07:31:15;;;;;;;0.20;0.20;;;;;;;;;;5055212;28;20377;-77
2021/07/03 07:33:40;;;;;;;0.20;0.20;;;;;;;;;;5051396;28;20824;-78
2021/07/03 07:36:05;;;;;;;0.20;0.20;;;;;;;;;;5053617;28;20474;-76
2021/07/03 07:38:31;;;;;;;0.20;0.20;;;;;;;;;;5042724;28;20151;-77
2021/07/03 07:40:56;;;;;;;0.20;0.20;;;;;;;;;;5055507;28;20028;-77
2021/07/03 07:43:21;;;;;;;0.20;0.20;;;;;;;;;;5069284;28;20039;-76
2021/07/03 07:45:47;;;;;;;0.20;0.20;;;;;;;;;;5051699;28;20044;-78
2021/07/03 07:48:12;;;;;;;0.20;0.20;;;;;;;;;;5054927;28;20598;-78
2021/07/03 07:50:37;;;;;;;0.20;0.20;;;;;;;;;;5054371;28;20128;-78
2021/07/03 07:53:03;;;;;;;0.20;0.20;;;;;;;;;;5050343;28;20036;-77
2021/07/03 07:55:29;;;;;;;0.20;0.20;;;;;;;;;;5052242;28;20036;-78
2021/07/03 07:57:54;;;;;;;0.10;0.10;;;;;;;;;;5055158;28;20035;-77
2021/07/03 08:00:22;;;;;;;0.20;0.20;;;;;;;;;;5054359;28;20107;-78
2021/07/03 08:02:47;;;;;;;0.10;0.10;;;;;;;;;;5054039;28;20016;-77
2021/07/03 08:05:13;;;;;;;0.10;0.10;;;;;;;;;;5052340;28;20489;-78
2021/07/03 08:07:38;;;;;;;0.20;0.20;;;;;;;;;;5052277;28;20029;-77
2021/07/03 08:10:04;;;;;;;0.20;0.20;;;;;;;;;;5056353;28;20037;-77
2021/07/03 08:12:30;;;;;;;0.10;0.10;;;;;;;;;;5053901;28;21633;-77
2021/07/03 08:14:55;;;;;;;0.10;0.10;;;;;;;;;;5058013;28;20528;-77
2021/07/03 08:17:20;;;;;;;0.13;0.13;;;;;;;;;;5060379;28;20075;-77
2021/07/03 08:19:46;;;;;;;0.20;0.20;;;;;;;;;;5059143;28;20028;-77
2021/07/03 08:22:11;;;;;;;0.20;0.20;;;;;;;;;;5062582;28;20044;-77
2021/07/03 08:24:36;;;;;;;0.10;0.10;;;;;;;;;;5061365;28;20083;-77
2021/07/03 08:27:03;;;;;;;0.10;0.10;;;;;;;;;;5039388;28;20093;-78
2021/07/03 08:29:28;;;;;;;0.10;0.10;;;;;;;;;;5056551;28;20834;-77
2021/07/03 08:31:53;;;;;;;0.20;0.20;;;;;;;;;;5060418;28;20094;-78
2021/07/03 08:34:19;;;;;;;0.20;0.20;;;;;;;;;;5053149;28;20548;-78
2021/07/03 08:36:44;;;;;;;0.10;0.10;;;;;;;;;;5053423;28;20041;-78
2021/07/03 08:39:09;;;;;;;0.10;0.10;;;;;;;;;;5050596;28;20029;-77
2021/07/03 08:41:35;;;;;;;0.10;0.10;;;;;;;;;;5055037;28;20041;-78
2021/07/03 08:44:00;;;;;;;0.20;0.20;;;;;;;;;;5058129;28;20041;-78
2021/07/03 08:46:26;;;;;;;0.10;0.10;;;;;;;;;;5056343;28;20139;-79
2021/07/03 08:48:55;;;;;;;0.10;0.10;;;;;;;;;;5052030;28;20033;-78
2021/07/03 08:51:24;;;;;;;0.10;0.10;;;;;;;;;;5059754;28;20037;-79
2021/07/03 08:53:50;;;;;;;0.13;0.13;;;;;;;;;;5043383;28;20047;-79
2021/07/03 08:56:16;;;;;;;0.10;0.10;;;;;;;;;;5042194;28;20028;-78
2021/07/03 08:58:41;;;;;;;0.10;0.10;;;;;;;;;;5055525;28;20152;-78
2021/07/03 09:01:06;;;;;;;0.10;0.10;;;;;;;;;;5056443;28;20043;-78
2021/07/03 09:03:32;;;;;;;0.17;0.17;;;;;;;;;;5054826;28;20032;-78
2021/07/03 09:05:59;;;;;;;0.10;0.10;;;;;;;;;;5057249;28;20049;-78
2021/07/03 09:08:26;;;;;;;0.10;0.10;;;;;;;;;;5055136;28;20405;-78
2021/07/03 09:11:01;;;;;;;0.10;0.10;;;;;;;;;;5046661;28;20041;-77
2021/07/03 09:13:27;;;;;;;0.13;0.13;;;;;;;;;;5039204;28;20035;-78
2021/07/03 09:15:52;;;;;;;0.17;0.17;;;;;;;;;;5062160;28;20041;-78
2021/07/03 09:18:18;;;;;;;0.17;0.17;;;;;;;;;;5038125;28;20262;-78
2021/07/03 09:20:52;;;;;;;0.10;0.10;;;;;;;;;;5053493;28;20098;-78
2021/07/03 09:23:19;;;;;;;0.10;0.10;;;;;;;;;;5051704;28;20074;-78
2021/07/03 09:25:46;;;;;;;0.10;0.10;;;;;;;;;;5052714;28;20634;-77
2021/07/03 09:28:11;;;;;;;;;;;;;;;;;;5037770;28;20043;-77
2021/07/03 09:30:37;;;;;;;0.10;0.10;;;;;;;;;;5050520;28;19912;-79
2021/07/03 09:33:02;;;;;;;0.10;0.10;;;;;;;;;;5056614;28;20060;-75
2021/07/03 09:35:28;;;;;;;0.05;0.05;;;;;;;;;;5051098;28;20040;-78
2021/07/03 09:38:03;;;;;;;0.10;0.10;;;;;;;;;;5060921;28;20070;-78
2021/07/03 09:40:30;;;;;;;0.10;0.10;;;;;;;;;;5053801;28;20413;-76
2021/07/03 09:43:01;;;;;;;0.10;0.10;;;;;;;;;;5048457;28;20116;-78
2021/07/03 09:45:27;;;;;;;0.10;0.10;;;;;;;;;;5067268;28;20226;-78
2021/07/03 09:48:01;;;;;;;0.10;0.10;;;;;;;;;;5050755;28;20124;-78
2021/07/03 09:50:26;;;;;;;0.10;0.10;;;;;;;;;;5050464;28;20041;-78
2021/07/03 09:52:52;;;;;;;0.10;0.10;;;;;;;;;;5050608;28;20105;-79
2021/07/03 09:55:18;;;;;;;0.10;0.10;;;;;;;;;;5055306;28;20036;-77
2021/07/03 09:57:45;;;;;;;0.10;0.10;;;;;;;;;;5054559;28;20044;-77
2021/07/03 10:00:11;;;;;;;0.10;0.10;;;;;;;;;;5054873;28;20131;-76
2021/07/03 10:02:37;;;;;;;0.10;0.10;;;;;;;;;;5044630;28;20047;-77
2021/07/03 10:05:03;;;;;;;0.10;0.10;;;;;;;;;;5054770;28;20531;-77
2021/07/03 10:07:42;;;;;;;0.10;0.10;;;;;;;;;;5051255;28;20048;-78
2021/07/03 10:10:12;;;;;;;0.10;0.10;;;;;;;;;;5049663;28;20048;-77
2021/07/03 10:12:41;;;;;;;0.10;0.10;;;;;;;;;;5045783;28;20140;-77
2021/07/03 10:15:07;;;;;;;0.10;0.10;;;;;;;;;;5049396;28;20079;-77
2021/07/03 10:17:34;;;;;;;0.10;0.10;;;;;;;;;;5049343;28;20044;-77
2021/07/03 10:19:59;;;;;;;;;;;;;;;;;;5055303;28;20124;-78
2021/07/03 10:22:29;;;;;;;0.10;0.10;;;;;;;;;;5050766;28;20339;-77
2021/07/03 10:24:58;;;;;;;0.10;0.10;;;;;;;;;;5050618;28;20041;-78
2021/07/03 10:27:23;;;;;;;0.10;0.10;;;;;;;;;;5049871;28;20032;-78
2021/07/03 10:29:49;;;;;;;0.10;0.10;;;;;;;;;;5059950;28;20048;-79
2021/07/03 10:32:18;;;;;;;0.00;0.00;;;;;;;;;;5054190;28;20032;-77
2021/07/03 10:34:44;;;;;;;0.10;0.10;;;;;;;;;;5058487;28;20043;-77
2021/07/03 10:37:09;;;;;;;0.10;0.10;;;;;;;;;;5054821;28;20024;-77
2021/07/03 10:39:34;;;;;;;0.10;0.10;;;;;;;;;;5061163;28;20051;-78
2021/07/03 10:42:00;;;;;;;0.05;0.05;;;;;;;;;;5051863;28;20756;-76
2021/07/03 10:44:41;;;;;;;0.00;0.00;;;;;;;;;;5060084;28;20036;-77
2021/07/03 10:47:11;;;;;;;0.15;0.10;;;;;;;;;;5061374;28;20416;-76
2021/07/03 10:49:38;;;;;;;0.10;0.10;;;;;;;;;;5069123;28;20151;-75
2021/07/03 10:52:14;;;;;;;0.10;0.10;;;;;;;;;;5054378;28;20045;-75
2021/07/03 10:54:39;;;;;;;0.10;0.10;;;;;;;;;;5057754;28;20428;-75
2021/07/03 10:57:05;;;;;;;0.10;0.10;;;;;;;;;;5063124;28;20040;-76
2021/07/03 10:59:36;;;;;;;0.10;0.10;;;;;;;;;;5057749;28;20045;-76
2021/07/03 11:02:05;;;;;;;0.08;0.08;;;;;;;;;;5058578;28;20139;-75
2021/07/03 11:04:41;;;;;;;0.10;0.10;;;;;;;;;;5051344;28;20041;-76
2021/07/03 11:07:10;;;;;;;0.10;0.10;;;;;;;;;;5068866;28;20032;-76
2021/07/03 11:09:35;;;;;;;0.10;0.10;;;;;;;;;;5054686;28;21076;-76
2021/07/03 11:12:14;;;;;;;0.10;0.10;;;;;;;;;;5060348;28;20032;-75
2021/07/03 11:15:00;;;;;;;0.03;0.03;;;;;;;;;;5057714;28;20104;-75
2021/07/03 11:17:26;;;;;;;0.00;0.00;;;;;;;;;;5062109;28;20197;-76
2021/07/03 11:19:53;;;;;;;0.03;0.03;;;;;;;;;;5058848;28;20281;-76
2021/07/03 11:22:22;;;;;;;0.10;0.10;;;;;;;;;;5049076;28;20052;-76
2021/07/03 11:24:49;;;;;;;0.00;0.00;;;;;;;;;;5053751;28;20045;-76
2021/07/03 11:27:15;;;;;;;;;;;;;;;;;;5053803;28;20454;-76
2021/07/03 11:29:42;;;;;;;0.10;0.10;;;;;;;;;;5050747;28;19912;-76
2021/07/03 11:32:07;;;;;;;0.10;0.10;;;;;;;;;;5054002;28;20041;-75
2021/07/03 11:34:36;;;;;;;0.10;0.10;;;;;;;;;;5049247;28;20033;-76
2021/07/03 11:37:02;;;;;;;0.10;0.10;;;;;;;;;;5056138;28;20040;-76
2021/07/03 11:39:28;;;;;;;0.00;0.00;;;;;;;;;;5050739;28;20044;-77
2021/07/03 11:42:03;;;;;;;0.00;0.00;;;;;;;;;;5049215;28;20869;-77
2021/07/03 11:44:29;;;;;;;0.00;0.00;;;;;;;;;;5051924;28;20152;-77
2021/07/03 11:46:54;;;;;;;0.00;0.00;;;;;;;;;;5055893;28;20127;-77
2021/07/03 11:49:20;;;;;;;0.00;0.00;;;;;;;;;;5064668;28;20048;-78
2021/07/03 11:51:45;;;;;;;0.00;0.00;;;;;;;;;;5054969;28;20067;-75
2021/07/03 11:54:10;;;;;;;0.00;0.00;;;;;;;;;;5056216;28;20124;-76
2021/07/03 11:56:36;;;;;;;0.00;0.00;;;;;;;;;;5052764;28;20037;-75
2021/07/03 11:59:02;;;;;;;0.00;0.00;;;;;;;;;;5069809;28;20035;-76
2021/07/03 12:01:28;;;;;;;0.00;0.00;;;;;;;;;;5048721;28;20036;-76
2021/07/03 12:03:54;;;;;;;0.00;0.00;;;;;;;;;;5053645;28;20032;-76
2021/07/03 12:06:20;;;;;;;0.00;0.00;;;;;;;;;;5056355;28;20032;-77
2021/07/03 12:08:47;;;;;;;0.40;0.10;;;;;;;;;;5055975;28;20129;-76
2021/07/03 12:11:14;;;;;;;0.00;0.00;;;;;;;;;;5058580;28;20044;-77
2021/07/03 12:13:45;;;;;;;0.00;0.00;;;;;;;;;;5041694;28;20063;-77
2021/07/03 12:16:11;;;;;;;0.00;0.00;;;;;;;;;;5052682;28;20627;-77
2021/07/03 12:18:36;;;;;;;;;;;;;;;;;;5066178;28;20094;-76
2021/07/03 12:21:02;;;;;;;0.00;0.00;;;;;;;;;;5035235;28;19920;-76
2021/07/03 12:23:27;;;;;;;;;;;;;;;;;;5060030;28;20040;-76
2021/07/03 12:25:52;;;;;;;0.00;0.00;;;;;;;;;;5060484;28;20606;-77
2021/07/03 12:28:18;;;;;;;0.00;0.00;;;;;;;;;;5057938;28;20040;-76
2021/07/03 12:30:43;;;;;;;;;;;;;;;;;;5055393;28;20201;-77
2021/07/03 12:33:09;;;;;;;0.00;0.00;;;;;;;;;;5035696;28;19930;-76
2021/07/03 12:35:52;;;;;;;0.00;0.00;;;;;;;;;;5048908;28;20041;-77
2021/07/03 12:38:22;;;;;;;0.00;0.00;;;;;;;;;;5053433;28;20039;-77
2021/07/03 12:40:47;;;;;;;0.00;0.00;;;;;;;;;;5053120;28;20932;-77
2021/07/03 12:43:13;;;;;;;0.00;0.00;;;;;;;;;;5053764;28;20684;-77
2021/07/03 12:45:39;;;;;;;0.00;0.00;;;;;;;;;;5054475;28;20049;-77
2021/07/03 12:48:04;;;;;;;0.00;0.00;;;;;;;;;;5040758;28;20121;-76
2021/07/03 12:50:29;;;;;;;;;;;;;;;;;;5050294;28;20458;-77
2021/07/03 12:52:55;;;;;;;;;;;;;;;;;;5054215;28;19912;-77
2021/07/03 12:55:20;;;;;;;0.00;0.00;;;;;;;;;;5048936;28;19919;-77
2021/07/03 12:57:46;;;;;;;0.00;0.00;;;;;;;;;;5057092;28;20052;-77
2021/07/03 13:00:12;;;;;;;0.00;0.00;;;;;;;;;;5051591;28;20763;-77
2021/07/03 13:02:38;;;;;;;0.00;0.00;;;;;;;;;;5055055;28;20070;-76
2021/07/03 13:05:05;;;;;;;0.00;0.00;;;;;;;;;;5050653;28;20041;-76
2021/07/03 13:07:30;;;;;;;0.00;0.00;;;;;;;;;;5048926;28;20120;-77
2021/07/03 13:09:56;;;;;;;0.00;0.00;;;;;;;;;;5057769;28;20124;-78
2021/07/03 13:12:21;;;;;;;0.00;0.00;;;;;;;;;;5077289;28;20032;-78
2021/07/03 13:14:47;;;;;;;0.00;0.00;;;;;;;;;;5077011;28;20107;-77
2021/07/03 13:17:12;;;;;;;0.00;0.00;;;;;;;;;;5062645;28;20040;-75
2021/07/03 13:19:37;;;;;;;0.00;0.00;;;;;;;;;;5062433;28;20128;-76
2021/07/03 13:22:03;;;;;;;;;;;;;;;;;;5059782;28;20831;-76
2021/07/03 13:24:28;;;;;;;;;;;;;;;;;;5052960;28;19994;-77
2021/07/03 13:26:53;;;;;;;0.00;0.00;;;;;;;;;;5055856;28;20404;-77
2021/07/03 13:29:19;;;;;;;0.00;0.00;;;;;;;;;;5053424;28;20047;-77
2021/07/03 13:31:44;;;;;;;0.00;0.00;;;;;;;;;;5056578;28;20116;-76
2021/07/03 13:34:10;;;;;;;0.00;0.00;;;;;;;;;;5047941;28;20067;-76
2021/07/03 13:36:35;;;;;;;0.00;0.00;;;;;;;;;;5052675;28;20040;-77
2021/07/03 13:39:02;;;;;;;0.00;0.00;;;;;;;;;;5056219;28;20071;-77
2021/07/03 13:41:28;;;;;;;0.00;0.00;;;;;;;;;;5041735;28;20114;-77
2021/07/03 13:43:54;;;;;;;0.00;0.00;;;;;;;;;;5054875;28;20579;-77
2021/07/03 13:46:20;;;;;;;0.00;0.00;;;;;;;;;;5051722;28;20044;-77
2021/07/03 13:48:45;;;;;;;0.00;0.00;;;;;;;;;;5048485;28;20125;-77
2021/07/03 13:51:10;;;;;;;0.00;0.00;;;;;;;;;;5055702;28;20128;-77
2021/07/03 13:53:36;;;;;;;0.00;0.00;;;;;;;;;;5053579;28;20037;-77
2021/07/03 13:56:01;;;;;;;0.00;0.00;;;;;;;;;;5053708;28;20060;-76
2021/07/03 13:58:27;;;;;;;0.00;0.00;;;;;;;;;;5050743;28;20036;-77
2021/07/03 14:00:53;;;;;;;0.00;0.00;;;;;;;;;;5036398;28;20131;-77
2021/07/03 14:03:18;;;;;;;0.00;0.00;;;;;;;;;;5052586;28;20036;-77
2021/07/03 14:05:44;;;;;;;0.00;0.00;;;;;;;;;;5049953;28;20063;-76
2021/07/03 14:08:09;;;;;;;;;;;;;;;;;;5050410;28;20028;-76
2021/07/03 14:10:35;;;;;;;0.00;0.00;;;;;;;;;;5055957;28;19938;-78
2021/07/03 14:13:00;;;;;;;;;;;;;;;;;;5059292;28;20072;-78
2021/07/03 14:15:25;;;;;;;0.00;0.00;;;;;;;;;;5055564;28;20384;-78
2021/07/03 14:17:51;;;;;;;0.00;0.00;;;;;;;;;;5058258;28;20261;-78
2021/07/03 14:20:16;;;;;;;0.00;0.00;;;;;;;;;;5068132;28;20055;-78
2021/07/03 14:22:41;;;;;;;0.00;0.00;;;;;;;;;;5038623;28;20090;-77
2021/07/03 14:25:08;;;;;;;0.00;0.00;;;;;;;;;;5058605;28;20056;-77
2021/07/03 14:27:33;;;;;;;0.00;0.00;;;;;;;;;;5052110;28;20127;-76
2021/07/03 14:29:59;;;;;;;0.10;0.00;;;;;;;;;;5060256;28;20515;-78
2021/07/03 14:32:24;;;;;;;0.00;0.00;;;;;;;;;;5046782;28;20067;-78
2021/07/03 14:34:49;;;;;;;0.00;0.00;;;;;;;;;;5062481;28;20037;-77
2021/07/03 14:37:15;;;;;;;0.00;0.00;;;;;;;;;;5061841;28;20037;-78
2021/07/03 14:39:40;;;;;;;0.00;0.00;;;;;;;;;;5062588;28;20142;-77
2021/07/03 14:42:06;;;;;;;0.00;0.00;;;;;;;;;;5058043;28;20036;-77
2021/07/03 14:44:32;;;;;;;0.00;0.00;;;;;;;;;;5063986;28;20043;-77